sensor_id;sensor_type;location;lat;lon;timestamp;P1;durP1;ratioP1;P2;durP2;ratioP2
15295;SDS011;7749;49.964;7.890;2023-08-06T00:01:52;3.63;;;3.28;;
15295;SDS011;7749;49.964;7.890;2023-08-06T00:04:20;4.00;;;3.47;;
15295;SDS011;7749;49.964;7.890;2023-08-06T00:06:48;3.03;;;2.72;;
15295;SDS011;7749;49.964;7.890;2023-08-06T00:09:15;5.22;;;3.08;;
15295;SDS011;7749;49.964;7.890;2023-08-06T00:11:42;3.28;;;2.80;;
15295;SDS011;7749;49.964;7.890;2023-08-06T00:14:10;3.10;;;2.80;;
15295;SDS011;7749;49.964;7.890;2023-08-06T00:16:38;3.08;;;2.78;;
15295;SDS011;7749;49.964;7.890;2023-08-06T00:19:05;3.38;;;3.03;;
15295;SDS011;7749;49.964;7.890;2023-08-06T00:21:33;3.25;;;2.95;;
15295;SDS011;7749;49.964;7.890;2023-08-06T00:24:00;3.25;;;2.58;;
15295;SDS011;7749;49.964;7.890;2023-08-06T00:26:28;3.17;;;2.80;;
15295;SDS011;7749;49.964;7.890;2023-08-06T00:28:55;3.38;;;2.70;;
15295;SDS011;7749;49.964;7.890;2023-08-06T00:31:25;5.20;;;3.00;;
15295;SDS011;7749;49.964;7.890;2023-08-06T00:33:52;3.30;;;2.97;;
15295;SDS011;7749;49.964;7.890;2023-08-06T00:36:20;4.13;;;2.85;;
15295;SDS011;7749;49.964;7.890;2023-08-06T00:38:47;3.40;;;2.67;;
15295;SDS011;7749;49.964;7.890;2023-08-06T00:41:14;3.05;;;2.75;;
15295;SDS011;7749;49.964;7.890;2023-08-06T00:43:42;5.50;;;3.38;;
15295;SDS011;7749;49.964;7.890;2023-08-06T00:46:09;4.55;;;2.97;;
15295;SDS011;7749;49.964;7.890;2023-08-06T00:48:37;5.05;;;3.22;;
15295;SDS011;7749;49.964;7.890;2023-08-06T00:51:05;5.75;;;3.30;;
15295;SDS011;7749;49.964;7.890;2023-08-06T00:53:32;4.70;;;2.92;;
15295;SDS011;7749;49.964;7.890;2023-08-06T00:56:00;3.55;;;3.10;;
15295;SDS011;7749;49.964;7.890;2023-08-06T00:58:29;3.85;;;2.80;;
15295;SDS011;7749;49.964;7.890;2023-08-06T01:00:56;3.60;;;3.30;;
15295;SDS011;7749;49.964;7.890;2023-08-06T01:03:24;4.53;;;2.63;;
15295;SDS011;7749;49.964;7.890;2023-08-06T01:05:51;3.20;;;2.90;;
15295;SDS011;7749;49.964;7.890;2023-08-06T01:11:31;2.80;;;2.50;;
15295;SDS011;7749;49.964;7.890;2023-08-06T01:14:08;3.28;;;2.97;;
15295;SDS011;7749;49.964;7.890;2023-08-06T01:16:51;3.60;;;2.60;;
15295;SDS011;7749;49.964;7.890;2023-08-06T01:19:20;3.15;;;2.60;;
15295;SDS011;7749;49.964;7.890;2023-08-06T01:21:48;5.60;;;2.83;;
15295;SDS011;7749;49.964;7.890;2023-08-06T01:24:16;4.53;;;2.50;;
15295;SDS011;7749;49.964;7.890;2023-08-06T01:26:45;4.17;;;2.60;;
15295;SDS011;7749;49.964;7.890;2023-08-06T01:29:23;3.22;;;2.72;;
15295;SDS011;7749;49.964;7.890;2023-08-06T01:31:56;4.37;;;2.90;;
15295;SDS011;7749;49.964;7.890;2023-08-06T01:34:25;4.25;;;3.00;;
15295;SDS011;7749;49.964;7.890;2023-08-06T01:36:57;4.77;;;2.83;;
15295;SDS011;7749;49.964;7.890;2023-08-06T01:39:26;5.60;;;2.70;;
15295;SDS011;7749;49.964;7.890;2023-08-06T01:41:54;3.28;;;2.67;;
15295;SDS011;7749;49.964;7.890;2023-08-06T01:44:21;3.83;;;2.70;;
15295;SDS011;7749;49.964;7.890;2023-08-06T01:46:49;3.93;;;3.10;;
15295;SDS011;7749;49.964;7.890;2023-08-06T01:49:16;4.73;;;2.53;;
15295;SDS011;7749;49.964;7.890;2023-08-06T01:51:44;3.90;;;2.70;;
15295;SDS011;7749;49.964;7.890;2023-08-06T01:54:11;4.13;;;2.77;;
15295;SDS011;7749;49.964;7.890;2023-08-06T01:56:39;3.95;;;2.35;;
15295;SDS011;7749;49.964;7.890;2023-08-06T01:59:06;3.20;;;2.90;;
15295;SDS011;7749;49.964;7.890;2023-08-06T02:01:34;4.27;;;2.73;;
15295;SDS011;7749;49.964;7.890;2023-08-06T02:04:01;4.07;;;3.00;;
15295;SDS011;7749;49.964;7.890;2023-08-06T02:06:28;3.93;;;2.50;;
15295;SDS011;7749;49.964;7.890;2023-08-06T02:08:56;3.00;;;2.70;;
15295;SDS011;7749;49.964;7.890;2023-08-06T02:11:23;3.00;;;2.70;;
15295;SDS011;7749;49.964;7.890;2023-08-06T02:13:51;4.30;;;2.40;;
15295;SDS011;7749;49.964;7.890;2023-08-06T02:16:18;5.87;;;2.77;;
15295;SDS011;7749;49.964;7.890;2023-08-06T02:18:45;4.67;;;2.70;;
15295;SDS011;7749;49.964;7.890;2023-08-06T02:21:13;5.63;;;3.10;;
15295;SDS011;7749;49.964;7.890;2023-08-06T02:23:40;3.50;;;2.53;;
15295;SDS011;7749;49.964;7.890;2023-08-06T02:26:08;2.77;;;2.40;;
15295;SDS011;7749;49.964;7.890;2023-08-06T02:28:35;5.77;;;2.93;;
15295;SDS011;7749;49.964;7.890;2023-08-06T02:31:02;3.67;;;2.57;;
15295;SDS011;7749;49.964;7.890;2023-08-06T02:33:30;3.03;;;2.60;;
15295;SDS011;7749;49.964;7.890;2023-08-06T02:36:01;3.60;;;2.87;;
15295;SDS011;7749;49.964;7.890;2023-08-06T02:38:31;3.30;;;2.90;;
15295;SDS011;7749;49.964;7.890;2023-08-06T02:41:01;5.23;;;2.57;;
15295;SDS011;7749;49.964;7.890;2023-08-06T02:43:30;5.13;;;2.53;;
15295;SDS011;7749;49.964;7.890;2023-08-06T02:45:58;5.40;;;3.00;;
15295;SDS011;7749;49.964;7.890;2023-08-06T02:48:27;3.07;;;2.57;;
15295;SDS011;7749;49.964;7.890;2023-08-06T02:50:58;2.70;;;2.50;;
15295;SDS011;7749;49.964;7.890;2023-08-06T02:53:26;3.67;;;2.63;;
15295;SDS011;7749;49.964;7.890;2023-08-06T02:55:53;2.70;;;2.23;;
15295;SDS011;7749;49.964;7.890;2023-08-06T02:58:22;3.07;;;2.67;;
15295;SDS011;7749;49.964;7.890;2023-08-06T03:01:02;4.80;;;2.70;;
15295;SDS011;7749;49.964;7.890;2023-08-06T03:03:32;3.30;;;2.93;;
15295;SDS011;7749;49.964;7.890;2023-08-06T03:06:00;4.18;;;3.28;;
15295;SDS011;7749;49.964;7.890;2023-08-06T03:08:28;3.90;;;2.70;;
15295;SDS011;7749;49.964;7.890;2023-08-06T03:10:55;3.13;;;2.60;;
15295;SDS011;7749;49.964;7.890;2023-08-06T03:13:23;3.80;;;2.73;;
15295;SDS011;7749;49.964;7.890;2023-08-06T03:15:53;3.90;;;2.55;;
15295;SDS011;7749;49.964;7.890;2023-08-06T03:18:22;2.90;;;2.60;;
15295;SDS011;7749;49.964;7.890;2023-08-06T03:20:50;3.43;;;2.67;;
15295;SDS011;7749;49.964;7.890;2023-08-06T03:23:17;2.97;;;2.47;;
15295;SDS011;7749;49.964;7.890;2023-08-06T03:25:45;2.93;;;2.30;;
15295;SDS011;7749;49.964;7.890;2023-08-06T03:28:13;3.93;;;2.77;;
15295;SDS011;7749;49.964;7.890;2023-08-06T03:30:40;4.23;;;2.53;;
15295;SDS011;7749;49.964;7.890;2023-08-06T03:33:08;3.87;;;2.47;;
15295;SDS011;7749;49.964;7.890;2023-08-06T03:35:36;3.37;;;2.50;;
15295;SDS011;7749;49.964;7.890;2023-08-06T03:38:03;5.63;;;2.70;;
15295;SDS011;7749;49.964;7.890;2023-08-06T03:40:31;6.30;;;2.60;;
15295;SDS011;7749;49.964;7.890;2023-08-06T03:42:58;4.87;;;2.90;;
15295;SDS011;7749;49.964;7.890;2023-08-06T03:45:25;5.70;;;2.47;;
15295;SDS011;7749;49.964;7.890;2023-08-06T03:47:53;4.77;;;2.70;;
15295;SDS011;7749;49.964;7.890;2023-08-06T03:50:23;4.70;;;2.57;;
15295;SDS011;7749;49.964;7.890;2023-08-06T03:52:51;3.70;;;2.63;;
15295;SDS011;7749;49.964;7.890;2023-08-06T03:55:18;5.53;;;3.00;;
15295;SDS011;7749;49.964;7.890;2023-08-06T03:57:45;2.50;;;2.30;;
15295;SDS011;7749;49.964;7.890;2023-08-06T04:00:13;5.87;;;2.70;;
15295;SDS011;7749;49.964;7.890;2023-08-06T04:02:40;4.50;;;3.00;;
15295;SDS011;7749;49.964;7.890;2023-08-06T04:05:08;5.03;;;2.53;;
15295;SDS011;7749;49.964;7.890;2023-08-06T04:07:35;3.63;;;2.63;;
15295;SDS011;7749;49.964;7.890;2023-08-06T04:10:03;4.53;;;2.43;;
15295;SDS011;7749;49.964;7.890;2023-08-06T04:12:31;4.13;;;2.40;;
15295;SDS011;7749;49.964;7.890;2023-08-06T04:15:03;5.63;;;2.30;;
15295;SDS011;7749;49.964;7.890;2023-08-06T04:17:31;5.33;;;2.67;;
15295;SDS011;7749;49.964;7.890;2023-08-06T04:19:58;3.63;;;2.43;;
15295;SDS011;7749;49.964;7.890;2023-08-06T04:22:26;5.67;;;2.90;;
15295;SDS011;7749;49.964;7.890;2023-08-06T04:24:53;5.97;;;3.20;;
15295;SDS011;7749;49.964;7.890;2023-08-06T04:27:21;2.90;;;2.20;;
15295;SDS011;7749;49.964;7.890;2023-08-06T04:29:48;5.57;;;2.90;;
15295;SDS011;7749;49.964;7.890;2023-08-06T04:32:15;5.67;;;2.50;;
15295;SDS011;7749;49.964;7.890;2023-08-06T04:34:44;6.47;;;2.77;;
15295;SDS011;7749;49.964;7.890;2023-08-06T04:37:11;7.43;;;2.80;;
15295;SDS011;7749;49.964;7.890;2023-08-06T04:39:38;7.83;;;2.90;;
15295;SDS011;7749;49.964;7.890;2023-08-06T04:42:06;4.13;;;2.67;;
15295;SDS011;7749;49.964;7.890;2023-08-06T04:44:34;3.47;;;2.20;;
15295;SDS011;7749;49.964;7.890;2023-08-06T04:47:01;4.10;;;2.23;;
15295;SDS011;7749;49.964;7.890;2023-08-06T04:49:29;3.33;;;2.50;;
15295;SDS011;7749;49.964;7.890;2023-08-06T04:51:56;2.47;;;1.73;;
15295;SDS011;7749;49.964;7.890;2023-08-06T04:54:24;4.50;;;2.20;;
15295;SDS011;7749;49.964;7.890;2023-08-06T04:56:51;2.93;;;1.80;;
15295;SDS011;7749;49.964;7.890;2023-08-06T04:59:18;3.77;;;2.13;;
15295;SDS011;7749;49.964;7.890;2023-08-06T05:01:47;1.80;;;1.50;;
15295;SDS011;7749;49.964;7.890;2023-08-06T05:04:14;2.93;;;1.60;;
15295;SDS011;7749;49.964;7.890;2023-08-06T05:06:42;2.03;;;1.33;;
15295;SDS011;7749;49.964;7.890;2023-08-06T05:09:09;1.90;;;1.67;;
15295;SDS011;7749;49.964;7.890;2023-08-06T05:11:37;1.40;;;1.20;;
15295;SDS011;7749;49.964;7.890;2023-08-06T05:14:04;2.17;;;1.00;;
15295;SDS011;7749;49.964;7.890;2023-08-06T05:16:31;1.67;;;1.20;;
15295;SDS011;7749;49.964;7.890;2023-08-06T05:18:59;1.20;;;1.00;;
15295;SDS011;7749;49.964;7.890;2023-08-06T05:21:26;3.17;;;1.00;;
15295;SDS011;7749;49.964;7.890;2023-08-06T05:23:54;1.40;;;0.90;;
15295;SDS011;7749;49.964;7.890;2023-08-06T05:26:21;1.73;;;0.90;;
15295;SDS011;7749;49.964;7.890;2023-08-06T05:28:49;2.60;;;1.00;;
15295;SDS011;7749;49.964;7.890;2023-08-06T05:31:16;1.80;;;0.60;;
15295;SDS011;7749;49.964;7.890;2023-08-06T05:33:44;0.87;;;0.80;;
15295;SDS011;7749;49.964;7.890;2023-08-06T05:36:11;0.97;;;0.60;;
15295;SDS011;7749;49.964;7.890;2023-08-06T05:38:39;0.50;;;0.50;;
15295;SDS011;7749;49.964;7.890;2023-08-06T05:41:06;2.07;;;0.70;;
15295;SDS011;7749;49.964;7.890;2023-08-06T05:43:33;1.50;;;0.60;;
15295;SDS011;7749;49.964;7.890;2023-08-06T05:46:01;1.37;;;0.63;;
15295;SDS011;7749;49.964;7.890;2023-08-06T05:48:28;1.90;;;0.70;;
15295;SDS011;7749;49.964;7.890;2023-08-06T05:50:56;2.03;;;0.70;;
15295;SDS011;7749;49.964;7.890;2023-08-06T05:53:24;0.70;;;0.60;;
15295;SDS011;7749;49.964;7.890;2023-08-06T05:55:51;1.40;;;0.63;;
15295;SDS011;7749;49.964;7.890;2023-08-06T05:58:19;0.50;;;0.50;;
15295;SDS011;7749;49.964;7.890;2023-08-06T06:00:51;1.23;;;0.60;;
15295;SDS011;7749;49.964;7.890;2023-08-06T06:03:18;0.83;;;0.80;;
15295;SDS011;7749;49.964;7.890;2023-08-06T06:05:46;0.60;;;0.50;;
15295;SDS011;7749;49.964;7.890;2023-08-06T06:08:13;0.50;;;0.50;;
15295;SDS011;7749;49.964;7.890;2023-08-06T06:10:41;0.47;;;0.40;;
15295;SDS011;7749;49.964;7.890;2023-08-06T06:13:08;2.23;;;0.70;;
15295;SDS011;7749;49.964;7.890;2023-08-06T06:15:36;0.70;;;0.53;;
15295;SDS011;7749;49.964;7.890;2023-08-06T06:18:05;0.50;;;0.50;;
15295;SDS011;7749;49.964;7.890;2023-08-06T06:20:32;0.50;;;0.40;;
15295;SDS011;7749;49.964;7.890;2023-08-06T06:23:00;0.85;;;0.50;;
15295;SDS011;7749;49.964;7.890;2023-08-06T06:25:27;0.50;;;0.50;;
15295;SDS011;7749;49.964;7.890;2023-08-06T06:27:56;0.87;;;0.50;;
15295;SDS011;7749;49.964;7.890;2023-08-06T06:30:25;2.73;;;0.60;;
15295;SDS011;7749;49.964;7.890;2023-08-06T06:32:52;0.40;;;0.40;;
15295;SDS011;7749;49.964;7.890;2023-08-06T06:35:20;0.77;;;0.40;;
15295;SDS011;7749;49.964;7.890;2023-08-06T06:37:48;0.55;;;0.50;;
15295;SDS011;7749;49.964;7.890;2023-08-06T06:40:16;1.73;;;0.60;;
15295;SDS011;7749;49.964;7.890;2023-08-06T06:42:43;0.98;;;0.40;;
15295;SDS011;7749;49.964;7.890;2023-08-06T06:45:11;0.35;;;0.30;;
15295;SDS011;7749;49.964;7.890;2023-08-06T06:47:38;0.57;;;0.30;;
15295;SDS011;7749;49.964;7.890;2023-08-06T06:50:06;0.38;;;0.30;;
15295;SDS011;7749;49.964;7.890;2023-08-06T06:52:33;0.30;;;0.30;;
15295;SDS011;7749;49.964;7.890;2023-08-06T06:55:01;0.50;;;0.50;;
15295;SDS011;7749;49.964;7.890;2023-08-06T06:57:28;0.63;;;0.50;;
15295;SDS011;7749;49.964;7.890;2023-08-06T06:59:56;0.50;;;0.50;;
15295;SDS011;7749;49.964;7.890;2023-08-06T07:02:23;0.77;;;0.40;;
15295;SDS011;7749;49.964;7.890;2023-08-06T07:04:51;0.52;;;0.40;;
15295;SDS011;7749;49.964;7.890;2023-08-06T07:07:18;1.63;;;0.45;;
15295;SDS011;7749;49.964;7.890;2023-08-06T07:09:46;1.08;;;0.50;;
15295;SDS011;7749;49.964;7.890;2023-08-06T07:12:13;0.68;;;0.40;;
15295;SDS011;7749;49.964;7.890;2023-08-06T07:14:40;1.75;;;0.50;;
15295;SDS011;7749;49.964;7.890;2023-08-06T07:17:08;2.22;;;0.40;;
15295;SDS011;7749;49.964;7.890;2023-08-06T07:19:35;1.50;;;0.60;;
15295;SDS011;7749;49.964;7.890;2023-08-06T07:22:03;1.27;;;0.40;;
15295;SDS011;7749;49.964;7.890;2023-08-06T07:24:30;0.73;;;0.40;;
15295;SDS011;7749;49.964;7.890;2023-08-06T07:26:58;1.50;;;0.50;;
15295;SDS011;7749;49.964;7.890;2023-08-06T07:29:25;0.30;;;0.30;;
15295;SDS011;7749;49.964;7.890;2023-08-06T07:31:53;1.30;;;0.45;;
15295;SDS011;7749;49.964;7.890;2023-08-06T07:34:22;0.32;;;0.30;;
15295;SDS011;7749;49.964;7.890;2023-08-06T07:36:49;1.33;;;0.32;;
15295;SDS011;7749;49.964;7.890;2023-08-06T07:39:17;0.32;;;0.30;;
15295;SDS011;7749;49.964;7.890;2023-08-06T07:41:44;1.45;;;0.40;;
15295;SDS011;7749;49.964;7.890;2023-08-06T07:44:12;0.55;;;0.32;;
15295;SDS011;7749;49.964;7.890;2023-08-06T07:46:40;0.38;;;0.30;;
15295;SDS011;7749;49.964;7.890;2023-08-06T07:49:08;0.73;;;0.40;;
15295;SDS011;7749;49.964;7.890;2023-08-06T07:51:37;0.50;;;0.40;;
15295;SDS011;7749;49.964;7.890;2023-08-06T07:54:05;0.30;;;0.30;;
15295;SDS011;7749;49.964;7.890;2023-08-06T07:56:33;1.30;;;0.47;;
15295;SDS011;7749;49.964;7.890;2023-08-06T07:59:00;1.25;;;0.30;;
15295;SDS011;7749;49.964;7.890;2023-08-06T08:01:28;0.50;;;0.40;;
15295;SDS011;7749;49.964;7.890;2023-08-06T08:03:56;0.75;;;0.47;;
15295;SDS011;7749;49.964;7.890;2023-08-06T08:06:24;0.40;;;0.40;;
15295;SDS011;7749;49.964;7.890;2023-08-06T08:11:30;0.90;;;0.40;;
15295;SDS011;7749;49.964;7.890;2023-08-06T08:14:00;1.30;;;0.52;;
15295;SDS011;7749;49.964;7.890;2023-08-06T08:16:28;0.70;;;0.50;;
15295;SDS011;7749;49.964;7.890;2023-08-06T08:18:55;0.73;;;0.45;;
15295;SDS011;7749;49.964;7.890;2023-08-06T08:21:23;0.82;;;0.45;;
15295;SDS011;7749;49.964;7.890;2023-08-06T08:23:53;0.32;;;0.32;;
15295;SDS011;7749;49.964;7.890;2023-08-06T08:26:21;0.52;;;0.32;;
15295;SDS011;7749;49.964;7.890;2023-08-06T08:28:48;1.33;;;0.40;;
15295;SDS011;7749;49.964;7.890;2023-08-06T08:31:16;1.23;;;0.30;;
15295;SDS011;7749;49.964;7.890;2023-08-06T08:33:44;1.33;;;0.30;;
15295;SDS011;7749;49.964;7.890;2023-08-06T08:36:11;1.63;;;0.40;;
15295;SDS011;7749;49.964;7.890;2023-08-06T08:38:39;1.65;;;0.30;;
15295;SDS011;7749;49.964;7.890;2023-08-06T08:41:06;0.55;;;0.50;;
15295;SDS011;7749;49.964;7.890;2023-08-06T08:43:36;0.85;;;0.30;;
15295;SDS011;7749;49.964;7.890;2023-08-06T08:46:05;1.10;;;0.30;;
15295;SDS011;7749;49.964;7.890;2023-08-06T08:48:34;1.00;;;0.40;;
15295;SDS011;7749;49.964;7.890;2023-08-06T08:51:02;0.65;;;0.40;;
15295;SDS011;7749;49.964;7.890;2023-08-06T08:53:29;0.80;;;0.32;;
15295;SDS011;7749;49.964;7.890;2023-08-06T08:55:58;0.75;;;0.30;;
15295;SDS011;7749;49.964;7.890;2023-08-06T08:58:26;1.23;;;0.55;;
15295;SDS011;7749;49.964;7.890;2023-08-06T09:00:53;0.50;;;0.50;;
15295;SDS011;7749;49.964;7.890;2023-08-06T09:03:23;0.85;;;0.52;;
15295;SDS011;7749;49.964;7.890;2023-08-06T09:05:52;0.32;;;0.30;;
15295;SDS011;7749;49.964;7.890;2023-08-06T09:08:23;1.17;;;0.30;;
15295;SDS011;7749;49.964;7.890;2023-08-06T09:10:55;0.45;;;0.40;;
15295;SDS011;7749;49.964;7.890;2023-08-06T09:13:24;0.65;;;0.50;;
15295;SDS011;7749;49.964;7.890;2023-08-06T09:15:53;0.65;;;0.50;;
15295;SDS011;7749;49.964;7.890;2023-08-06T09:18:25;0.43;;;0.43;;
15295;SDS011;7749;49.964;7.890;2023-08-06T09:20:57;0.50;;;0.50;;
15295;SDS011;7749;49.964;7.890;2023-08-06T09:23:32;1.25;;;0.40;;
15295;SDS011;7749;49.964;7.890;2023-08-06T09:26:00;1.77;;;0.40;;
15295;SDS011;7749;49.964;7.890;2023-08-06T09:28:38;0.75;;;0.40;;
15295;SDS011;7749;49.964;7.890;2023-08-06T09:31:09;1.05;;;0.50;;
15295;SDS011;7749;49.964;7.890;2023-08-06T09:33:40;0.30;;;0.30;;
15295;SDS011;7749;49.964;7.890;2023-08-06T09:36:11;0.55;;;0.30;;
15295;SDS011;7749;49.964;7.890;2023-08-06T09:38:46;0.60;;;0.20;;
15295;SDS011;7749;49.964;7.890;2023-08-06T09:41:25;1.48;;;0.30;;
15295;SDS011;7749;49.964;7.890;2023-08-06T09:44:15;4.03;;;0.50;;
15295;SDS011;7749;49.964;7.890;2023-08-06T09:46:50;1.17;;;0.38;;
15295;SDS011;7749;49.964;7.890;2023-08-06T09:52:00;0.40;;;0.25;;
15295;SDS011;7749;49.964;7.890;2023-08-06T09:54:31;1.45;;;0.30;;
15295;SDS011;7749;49.964;7.890;2023-08-06T09:57:07;0.32;;;0.28;;
15295;SDS011;7749;49.964;7.890;2023-08-06T09:59:35;0.70;;;0.30;;
15295;SDS011;7749;49.964;7.890;2023-08-06T10:02:07;1.75;;;0.40;;
15295;SDS011;7749;49.964;7.890;2023-08-06T10:04:49;0.68;;;0.50;;
15295;SDS011;7749;49.964;7.890;2023-08-06T10:07:51;0.25;;;0.20;;
15295;SDS011;7749;49.964;7.890;2023-08-06T10:10:23;0.60;;;0.50;;
15295;SDS011;7749;49.964;7.890;2023-08-06T10:12:52;0.77;;;0.47;;
15295;SDS011;7749;49.964;7.890;2023-08-06T10:15:26;0.43;;;0.30;;
15295;SDS011;7749;49.964;7.890;2023-08-06T10:17:57;0.28;;;0.22;;
15295;SDS011;7749;49.964;7.890;2023-08-06T10:20:26;0.20;;;0.20;;
15295;SDS011;7749;49.964;7.890;2023-08-06T10:23:00;0.15;;;0.15;;
15295;SDS011;7749;49.964;7.890;2023-08-06T10:25:33;0.85;;;0.20;;
15295;SDS011;7749;49.964;7.890;2023-08-06T10:28:11;0.70;;;0.22;;
15295;SDS011;7749;49.964;7.890;2023-08-06T10:30:45;0.38;;;0.25;;
15295;SDS011;7749;49.964;7.890;2023-08-06T10:33:13;0.20;;;0.20;;
15295;SDS011;7749;49.964;7.890;2023-08-06T10:35:42;0.30;;;0.30;;
15295;SDS011;7749;49.964;7.890;2023-08-06T10:38:12;1.45;;;0.25;;
15295;SDS011;7749;49.964;7.890;2023-08-06T10:45:54;0.30;;;0.30;;
15295;SDS011;7749;49.964;7.890;2023-08-06T10:48:35;0.35;;;0.30;;
15295;SDS011;7749;49.964;7.890;2023-08-06T10:51:10;0.50;;;0.30;;
15295;SDS011;7749;49.964;7.890;2023-08-06T10:53:42;1.08;;;0.20;;
15295;SDS011;7749;49.964;7.890;2023-08-06T10:58:45;0.30;;;0.30;;
15295;SDS011;7749;49.964;7.890;2023-08-06T11:01:14;0.47;;;0.30;;
15295;SDS011;7749;49.964;7.890;2023-08-06T11:03:42;0.73;;;0.40;;
15295;SDS011;7749;49.964;7.890;2023-08-06T11:06:16;1.00;;;0.40;;
15295;SDS011;7749;49.964;7.890;2023-08-06T11:08:48;0.73;;;0.30;;
15295;SDS011;7749;49.964;7.890;2023-08-06T11:11:17;1.85;;;0.50;;
15295;SDS011;7749;49.964;7.890;2023-08-06T11:13:46;1.10;;;0.40;;
15295;SDS011;7749;49.964;7.890;2023-08-06T11:16:15;0.43;;;0.40;;
15295;SDS011;7749;49.964;7.890;2023-08-06T11:18:51;0.38;;;0.38;;
15295;SDS011;7749;49.964;7.890;2023-08-06T11:21:23;0.40;;;0.40;;
15295;SDS011;7749;49.964;7.890;2023-08-06T11:23:51;2.90;;;0.68;;
15295;SDS011;7749;49.964;7.890;2023-08-06T11:26:20;0.88;;;0.50;;
15295;SDS011;7749;49.964;7.890;2023-08-06T11:28:48;0.57;;;0.55;;
15295;SDS011;7749;49.964;7.890;2023-08-06T11:31:22;0.40;;;0.40;;
15295;SDS011;7749;49.964;7.890;2023-08-06T11:33:51;0.65;;;0.50;;
15295;SDS011;7749;49.964;7.890;2023-08-06T11:36:31;0.80;;;0.52;;
15295;SDS011;7749;49.964;7.890;2023-08-06T11:39:00;0.98;;;0.50;;
15295;SDS011;7749;49.964;7.890;2023-08-06T11:41:29;0.85;;;0.55;;
15295;SDS011;7749;49.964;7.890;2023-08-06T11:43:57;0.70;;;0.60;;
15295;SDS011;7749;49.964;7.890;2023-08-06T11:46:25;0.43;;;0.43;;
15295;SDS011;7749;49.964;7.890;2023-08-06T11:48:56;1.92;;;1.13;;
15295;SDS011;7749;49.964;7.890;2023-08-06T11:51:25;0.82;;;0.60;;
15295;SDS011;7749;49.964;7.890;2023-08-06T11:53:56;1.20;;;0.40;;
15295;SDS011;7749;49.964;7.890;2023-08-06T11:56:25;0.50;;;0.50;;
15295;SDS011;7749;49.964;7.890;2023-08-06T11:58:56;0.90;;;0.50;;
15295;SDS011;7749;49.964;7.890;2023-08-06T12:01:25;1.40;;;0.55;;
15295;SDS011;7749;49.964;7.890;2023-08-06T12:03:57;0.65;;;0.50;;
15295;SDS011;7749;49.964;7.890;2023-08-06T12:06:29;0.88;;;0.50;;
15295;SDS011;7749;49.964;7.890;2023-08-06T12:08:56;0.98;;;0.60;;
15295;SDS011;7749;49.964;7.890;2023-08-06T12:11:24;2.22;;;0.70;;
15295;SDS011;7749;49.964;7.890;2023-08-06T12:13:51;0.60;;;0.60;;
15295;SDS011;7749;49.964;7.890;2023-08-06T12:16:19;1.70;;;0.57;;
15295;SDS011;7749;49.964;7.890;2023-08-06T12:18:48;1.52;;;0.70;;
15295;SDS011;7749;49.964;7.890;2023-08-06T12:21:16;2.38;;;0.50;;
15295;SDS011;7749;49.964;7.890;2023-08-06T12:23:43;0.70;;;0.52;;
15295;SDS011;7749;49.964;7.890;2023-08-06T12:26:11;1.33;;;0.60;;
15295;SDS011;7749;49.964;7.890;2023-08-06T12:28:38;1.70;;;0.68;;
15295;SDS011;7749;49.964;7.890;2023-08-06T12:31:05;0.95;;;0.75;;
15295;SDS011;7749;49.964;7.890;2023-08-06T12:33:33;0.95;;;0.60;;
15295;SDS011;7749;49.964;7.890;2023-08-06T12:36:01;1.35;;;0.63;;
15295;SDS011;7749;49.964;7.890;2023-08-06T12:38:29;0.90;;;0.50;;
15295;SDS011;7749;49.964;7.890;2023-08-06T12:41:00;1.42;;;0.50;;
15295;SDS011;7749;49.964;7.890;2023-08-06T12:43:27;1.95;;;0.63;;
15295;SDS011;7749;49.964;7.890;2023-08-06T12:45:55;2.50;;;0.77;;
15295;SDS011;7749;49.964;7.890;2023-08-06T12:48:22;1.20;;;0.80;;
15295;SDS011;7749;49.964;7.890;2023-08-06T12:50:50;0.82;;;0.43;;
15295;SDS011;7749;49.964;7.890;2023-08-06T12:53:17;0.73;;;0.60;;
15295;SDS011;7749;49.964;7.890;2023-08-06T12:55:47;0.80;;;0.60;;
15295;SDS011;7749;49.964;7.890;2023-08-06T12:58:15;1.85;;;0.70;;
15295;SDS011;7749;49.964;7.890;2023-08-06T13:00:42;1.40;;;0.45;;
15295;SDS011;7749;49.964;7.890;2023-08-06T13:03:10;1.85;;;0.70;;
15295;SDS011;7749;49.964;7.890;2023-08-06T13:05:37;1.17;;;0.40;;
15295;SDS011;7749;49.964;7.890;2023-08-06T13:08:05;2.03;;;1.13;;
15295;SDS011;7749;49.964;7.890;2023-08-06T13:10:32;0.80;;;0.80;;
15295;SDS011;7749;49.964;7.890;2023-08-06T13:13:00;0.90;;;0.60;;
15295;SDS011;7749;49.964;7.890;2023-08-06T13:15:28;2.58;;;0.40;;
15295;SDS011;7749;49.964;7.890;2023-08-06T13:17:55;0.80;;;0.50;;
15295;SDS011;7749;49.964;7.890;2023-08-06T13:20:22;0.53;;;0.50;;
15295;SDS011;7749;49.964;7.890;2023-08-06T13:22:50;2.33;;;0.70;;
15295;SDS011;7749;49.964;7.890;2023-08-06T13:25:20;0.80;;;0.47;;
15295;SDS011;7749;49.964;7.890;2023-08-06T13:27:47;0.90;;;0.50;;
15295;SDS011;7749;49.964;7.890;2023-08-06T13:30:15;0.80;;;0.70;;
15295;SDS011;7749;49.964;7.890;2023-08-06T13:32:45;2.10;;;0.70;;
15295;SDS011;7749;49.964;7.890;2023-08-06T13:35:12;2.33;;;0.53;;
15295;SDS011;7749;49.964;7.890;2023-08-06T13:37:39;1.42;;;0.50;;
15295;SDS011;7749;49.964;7.890;2023-08-06T13:40:07;1.50;;;0.60;;
15295;SDS011;7749;49.964;7.890;2023-08-06T13:42:35;0.95;;;0.50;;
15295;SDS011;7749;49.964;7.890;2023-08-06T13:45:03;0.80;;;0.57;;
15295;SDS011;7749;49.964;7.890;2023-08-06T13:47:31;1.03;;;0.47;;
15295;SDS011;7749;49.964;7.890;2023-08-06T13:49:59;1.00;;;0.50;;
15295;SDS011;7749;49.964;7.890;2023-08-06T13:52:26;0.70;;;0.50;;
15295;SDS011;7749;49.964;7.890;2023-08-06T13:54:54;0.57;;;0.40;;
15295;SDS011;7749;49.964;7.890;2023-08-06T13:57:21;1.58;;;0.50;;
15295;SDS011;7749;49.964;7.890;2023-08-06T13:59:49;0.95;;;0.40;;
15295;SDS011;7749;49.964;7.890;2023-08-06T14:02:16;0.40;;;0.40;;
15295;SDS011;7749;49.964;7.890;2023-08-06T14:04:44;2.28;;;0.30;;
15295;SDS011;7749;49.964;7.890;2023-08-06T14:07:11;0.35;;;0.32;;
15295;SDS011;7749;49.964;7.890;2023-08-06T14:09:38;0.77;;;0.50;;
15295;SDS011;7749;49.964;7.890;2023-08-06T14:12:07;0.80;;;0.35;;
15295;SDS011;7749;49.964;7.890;2023-08-06T14:14:34;1.90;;;0.40;;
15295;SDS011;7749;49.964;7.890;2023-08-06T14:17:02;1.57;;;0.90;;
15295;SDS011;7749;49.964;7.890;2023-08-06T14:19:30;2.73;;;0.67;;
15295;SDS011;7749;49.964;7.890;2023-08-06T14:21:58;1.15;;;0.50;;
15295;SDS011;7749;49.964;7.890;2023-08-06T14:24:25;0.35;;;0.35;;
15295;SDS011;7749;49.964;7.890;2023-08-06T14:26:52;0.88;;;0.50;;
15295;SDS011;7749;49.964;7.890;2023-08-06T14:29:20;0.30;;;0.30;;
15295;SDS011;7749;49.964;7.890;2023-08-06T14:31:49;0.43;;;0.43;;
15295;SDS011;7749;49.964;7.890;2023-08-06T14:34:17;0.40;;;0.40;;
15295;SDS011;7749;49.964;7.890;2023-08-06T14:36:45;1.93;;;0.70;;
15295;SDS011;7749;49.964;7.890;2023-08-06T14:39:12;0.70;;;0.30;;
15295;SDS011;7749;49.964;7.890;2023-08-06T14:41:40;0.20;;;0.20;;
15295;SDS011;7749;49.964;7.890;2023-08-06T14:44:07;0.70;;;0.55;;
15295;SDS011;7749;49.964;7.890;2023-08-06T14:46:35;1.52;;;0.40;;
15295;SDS011;7749;49.964;7.890;2023-08-06T14:49:02;0.53;;;0.30;;
15295;SDS011;7749;49.964;7.890;2023-08-06T14:51:30;0.20;;;0.20;;
15295;SDS011;7749;49.964;7.890;2023-08-06T14:53:57;0.50;;;0.30;;
15295;SDS011;7749;49.964;7.890;2023-08-06T14:56:24;0.30;;;0.30;;
15295;SDS011;7749;49.964;7.890;2023-08-06T14:58:52;0.30;;;0.30;;
15295;SDS011;7749;49.964;7.890;2023-08-06T15:01:20;1.03;;;0.33;;
15295;SDS011;7749;49.964;7.890;2023-08-06T15:03:47;0.30;;;0.30;;
15295;SDS011;7749;49.964;7.890;2023-08-06T15:06:15;0.33;;;0.30;;
15295;SDS011;7749;49.964;7.890;2023-08-06T15:08:42;0.40;;;0.40;;
15295;SDS011;7749;49.964;7.890;2023-08-06T15:11:15;0.87;;;0.43;;
15295;SDS011;7749;49.964;7.890;2023-08-06T15:13:42;0.40;;;0.30;;
15295;SDS011;7749;49.964;7.890;2023-08-06T15:16:09;0.50;;;0.43;;
15295;SDS011;7749;49.964;7.890;2023-08-06T15:18:37;0.47;;;0.30;;
15295;SDS011;7749;49.964;7.890;2023-08-06T15:21:04;1.23;;;0.30;;
15295;SDS011;7749;49.964;7.890;2023-08-06T15:23:32;0.40;;;0.40;;
15295;SDS011;7749;49.964;7.890;2023-08-06T15:25:59;0.30;;;0.30;;